Time;durP1;ratioP1;P1;durP2;ratioP2;P2;SDS_P1;SDS_P2;PMS_P1;PMS_P2;Temp;Humidity;BMP_temperature;BMP_pressure;BME280_temperature;BME280_humidity;BME280_pressure;Samples;Min_cycle;Max_cycle;Signal;HPM_P1;HPM_P2
2023/05/12 00:02:15;;;;;;;24.63;10.38;;;;;;;12.06;100.00;101802.19;5055433;28;20025;-47
2023/05/12 00:04:40;;;;;;;23.83;10.20;;;;;;;12.05;100.00;101799.66;5059244;28;20159;-46
2023/05/12 00:07:06;;;;;;;22.73;9.70;;;;;;;12.00;100.00;101797.44;5057524;28;20039;-45
2023/05/12 00:09:33;;;;;;;24.85;9.07;;;;;;;12.02;100.00;101798.13;5070914;28;20120;-47
2023/05/12 00:11:58;;;;;;;19.75;8.77;;;;;;;11.98;100.00;101794.09;5061485;28;20036;-48
2023/05/12 00:14:23;;;;;;;22.67;9.82;;;;;;;11.92;100.00;101797.44;5054272;28;20036;-45
2023/05/12 00:16:50;;;;;;;23.33;8.77;;;;;;;11.91;100.00;101793.06;5062923;28;20332;-48
2023/05/12 00:19:20;;;;;;;22.95;8.98;;;;;;;11.91;100.00;101784.16;5068843;28;20056;-49
2023/05/12 00:21:46;;;;;;;23.98;9.57;;;;;;;11.95;100.00;101790.88;5068991;28;20094;-47
2023/05/12 00:24:12;;;;;;;26.55;9.70;;;;;;;11.92;100.00;101783.97;5052975;28;20029;-47
2023/05/12 00:26:37;;;;;;;23.58;9.25;;;;;;;11.88;100.00;101784.50;5059071;28;20032;-46
2023/05/12 00:29:03;;;;;;;21.60;8.70;;;;;;;11.85;100.00;101785.63;5060319;28;20497;-45
2023/05/12 00:31:29;;;;;;;18.85;8.15;;;;;;;11.84;100.00;101782.06;5068766;28;20032;-47
2023/05/12 00:33:55;;;;;;;22.40;9.02;;;;;;;11.83;100.00;101782.25;5053954;28;20036;-47
2023/05/12 00:36:20;;;;;;;18.05;8.10;;;;;;;11.82;100.00;101791.34;5057181;28;20471;-46
2023/05/12 00:38:50;;;;;;;22.00;8.82;;;;;;;11.84;100.00;101789.31;5048874;28;20029;-46
2023/05/12 00:41:15;;;;;;;20.17;7.95;;;;;;;11.83;100.00;101793.88;5053308;28;20045;-46
2023/05/12 00:43:42;;;;;;;18.38;8.32;;;;;;;11.80;100.00;101790.69;5054452;28;20040;-47
2023/05/12 00:46:07;;;;;;;20.67;8.00;;;;;;;11.75;100.00;101793.03;5051932;28;20017;-46
2023/05/12 00:48:33;;;;;;;21.77;9.15;;;;;;;11.71;100.00;101786.28;5043542;28;20533;-45
2023/05/12 00:50:59;;;;;;;25.55;9.20;;;;;;;11.67;100.00;101788.47;5048983;28;20045;-47
2023/05/12 00:53:25;;;;;;;16.92;8.02;;;;;;;11.65;100.00;101783.22;5049548;28;20449;-47
2023/05/12 00:55:50;;;;;;;18.20;8.50;;;;;;;11.66;100.00;101784.06;5054621;28;20107;-48
2023/05/12 00:58:15;;;;;;;16.35;7.57;;;;;;;11.70;100.00;101787.28;5059913;28;20051;-46
2023/05/12 01:00:41;;;;;;;18.52;7.72;;;;;;;11.65;100.00;101785.94;5071107;28;20048;-47
2023/05/12 01:03:08;;;;;;;17.38;7.68;;;;;;;11.62;100.00;101783.56;5072755;28;20410;-46
2023/05/12 01:06:00;;;;;;;17.90;7.47;;;;;;;11.59;100.00;101789.28;5064376;28;20053;-45
2023/05/12 01:08:25;;;;;;;26.48;7.70;;;;;;;11.55;100.00;101782.53;5063881;28;20282;-45
2023/05/12 01:10:51;;;;;;;17.85;7.40;;;;;;;11.55;100.00;101781.69;5070307;28;20027;-46
2023/05/12 01:13:16;;;;;;;18.10;7.15;;;;;;;11.56;100.00;101778.84;5040301;28;20033;-48
2023/05/12 01:15:45;;;;;;;21.80;8.15;;;;;;;11.56;100.00;101778.84;5055701;28;20036;-47
2023/05/12 01:18:11;;;;;;;18.77;7.32;;;;;;;11.46;100.00;101782.69;5053269;28;20387;-47
2023/05/12 01:20:37;;;;;;;18.15;7.65;;;;;;;11.45;100.00;101775.59;5072753;28;20131;-45
2023/05/12 01:23:03;;;;;;;16.63;7.72;;;;;;;11.45;100.00;101781.81;5061627;28;20084;-48
2023/05/12 01:25:31;;;;;;;21.58;8.10;;;;;;;11.47;100.00;101779.81;5052006;28;20025;-46
2023/05/12 01:27:57;;;;;;;25.35;9.00;;;;;;;11.49;100.00;101790.44;5053238;28;20036;-47
2023/05/12 01:30:23;;;;;;;22.98;9.60;;;;;;;11.45;100.00;101787.22;5043583;28;20025;-46
2023/05/12 01:32:50;;;;;;;33.00;11.07;;;;;;;11.41;100.00;101780.50;5053500;28;20544;-50
2023/05/12 01:35:16;;;;;;;26.58;10.73;;;;;;;11.41;100.00;101788.56;5070521;28;20094;-45
2023/05/12 01:37:41;;;;;;;33.88;11.32;;;;;;;11.45;100.00;101787.22;5054232;28;20036;-46
2023/05/12 01:40:07;;;;;;;28.08;10.30;;;;;;;11.44;100.00;101788.25;5053860;28;20043;-46
2023/05/12 01:42:32;;;;;;;33.75;10.98;;;;;;;11.37;100.00;101784.50;5071389;28;20040;-47
2023/05/12 01:44:58;;;;;;;33.22;11.82;;;;;;;11.34;100.00;101782.16;5071897;28;20032;-46
2023/05/12 01:47:23;;;;;;;29.48;11.30;;;;;;;11.35;100.00;101784.69;5060557;28;20401;-47
2023/05/12 01:49:50;;;;;;;28.45;10.25;;;;;;;11.33;100.00;101783.16;5064827;28;20029;-47
2023/05/12 01:52:16;;;;;;;27.38;10.65;;;;;;;11.37;100.00;101784.50;5065237;28;20086;-47
2023/05/12 01:54:41;;;;;;;27.25;9.68;;;;;;;11.39;100.00;101787.88;5051554;28;20241;-49
2023/05/12 01:57:06;;;;;;;25.17;9.80;;;;;;;11.42;100.00;101787.56;5063792;28;20037;-50
2023/05/12 01:59:32;;;;;;;24.17;8.55;;;;;;;11.35;100.00;101783.84;5072379;28;20074;-46
2023/05/12 02:01:57;;;;;;;25.85;9.30;;;;;;;11.37;100.00;101792.59;5067504;28;20067;-49
2023/05/12 02:04:22;;;;;;;27.70;10.05;;;;;;;11.41;100.00;101788.56;5072989;28;20025;-49
2023/05/12 02:06:48;;;;;;;28.63;9.85;;;;;;;11.40;100.00;101789.56;5061944;28;20414;-46
2023/05/12 02:09:14;;;;;;;28.58;10.85;;;;;;;11.40;100.00;101786.88;5051597;28;20029;-48
2023/05/12 02:11:39;;;;;;;50.33;11.95;;;;;;;11.46;100.00;101788.94;5052516;28;20108;-46
2023/05/12 02:14:05;;;;;;;36.85;12.40;;;;;;;11.44;100.00;101790.94;5052552;28;20041;-47
2023/05/12 02:16:30;;;;;;;37.85;12.73;;;;;;;11.48;100.00;101786.06;5045058;28;20128;-48
2023/05/12 02:18:57;;;;;;;37.05;13.35;;;;;;;11.50;100.00;101787.56;5065658;28;20553;-48
2023/05/12 02:21:22;;;;;;;42.58;13.68;;;;;;;11.50;100.00;101782.19;5068955;28;20049;-48
2023/05/12 02:23:49;;;;;;;36.80;13.15;;;;;;;11.50;100.00;101784.88;5071667;28;20059;-52
2023/05/12 02:26:14;;;;;;;31.90;13.15;;;;;;;11.43;100.00;101768.53;5062248;28;20025;-46
2023/05/12 02:28:40;;;;;;;33.85;13.18;;;;;;;11.46;100.00;101778.16;5052384;28;20154;-45
2023/05/12 02:31:05;;;;;;;41.38;13.18;;;;;;;11.45;100.00;101781.81;5058431;28;20139;-48
2023/05/12 02:33:32;;;;;;;38.85;14.10;;;;;;;11.45;100.00;101779.13;5052290;28;20071;-48
2023/05/12 02:35:57;;;;;;;42.42;13.73;;;;;;;11.44;100.00;101774.75;5065554;28;20518;-50
2023/05/12 02:38:22;;;;;;;45.08;15.13;;;;;;;11.40;100.00;101776.09;5053631;28;20167;-47
2023/05/12 02:40:48;;;;;;;32.97;13.18;;;;;;;11.41;100.00;101770.53;5053904;28;20460;-47
2023/05/12 02:43:13;;;;;;;41.28;13.38;;;;;;;11.42;100.00;101771.38;5053026;28;20061;-47
2023/05/12 02:45:39;;;;;;;53.88;14.30;;;;;;;11.37;100.00;101768.34;5065425;28;20056;-47
2023/05/12 02:48:04;;;;;;;44.58;14.18;;;;;;;11.35;100.00;101764.97;5051471;28;20057;-48
2023/05/12 02:50:30;;;;;;;34.58;13.93;;;;;;;11.37;100.00;101773.72;5058826;28;20040;-49
2023/05/12 02:52:56;;;;;;;44.17;13.90;;;;;;;11.32;100.00;101762.59;5055891;28;20065;-47
2023/05/12 02:55:21;;;;;;;40.25;13.10;;;;;;;11.35;100.00;101764.97;5052274;28;20032;-46
2023/05/12 02:57:46;;;;;;;42.83;13.18;;;;;;;11.32;100.00;101768.84;5055597;28;20025;-45
2023/05/12 03:00:12;;;;;;;40.58;13.10;;;;;;;11.28;100.00;101767.47;5049968;28;20101;-42
2023/05/12 03:02:38;;;;;;;40.30;12.10;;;;;;;11.28;100.00;101764.78;5055699;28;20080;-44
2023/05/12 03:05:04;;;;;;;29.40;12.13;;;;;;;11.26;100.00;101760.56;5071213;28;20036;-45
2023/05/12 03:07:30;;;;;;;34.17;13.32;;;;;;;11.23;100.00;101763.59;5053223;28;20037;-43
2023/05/12 03:09:55;;;;;;;37.10;12.30;;;;;;;11.18;100.00;101754.13;5051746;28;20025;-44
2023/05/12 03:12:20;;;;;;;44.92;13.30;;;;;;;11.15;100.00;101749.06;5036736;28;20049;-45
2023/05/12 03:14:46;;;;;;;34.22;12.55;;;;;;;11.14;100.00;101752.78;5054014;28;20063;-43
2023/05/12 03:17:12;;;;;;;49.22;14.60;;;;;;;11.14;100.00;101758.19;5062555;28;20037;-44
2023/05/12 03:19:37;;;;;;;36.97;14.38;;;;;;;11.12;100.00;101756.66;5059504;28;20497;-45
2023/05/12 03:22:03;;;;;;;41.92;13.95;;;;;;;11.06;100.00;101739.28;5062271;28;20095;-46
2023/05/12 03:24:29;;;;;;;31.50;14.68;;;;;;;11.03;100.00;101738.75;5051028;28;20028;-45
2023/05/12 03:26:54;;;;;;;37.17;14.27;;;;;;;11.01;100.00;101751.56;5051100;28;20029;-46
2023/05/12 03:29:20;;;;;;;37.80;13.95;;;;;;;10.97;100.00;101746.47;5053404;28;20094;-48
2023/05/12 03:31:46;;;;;;;38.25;11.07;;;;;;;10.99;100.00;101749.03;5064378;28;20467;-47
2023/05/12 03:34:11;;;;;;;30.02;10.50;;;;;;;11.01;100.00;101746.19;5069180;28;20066;-50
2023/05/12 03:36:36;;;;;;;32.83;9.80;;;;;;;10.92;100.00;101734.50;5058881;28;20037;-46
2023/05/12 03:39:02;;;;;;;23.83;8.05;;;;;;;10.90;100.00;101739.22;5051334;28;20562;-49
2023/05/12 03:41:27;;;;;;;23.08;7.47;;;;;;;10.91;100.00;101735.53;5050309;28;20082;-51
2023/05/12 03:43:53;;;;;;;20.75;7.50;;;;;;;10.86;100.00;101737.88;5056731;28;20075;-52
2023/05/12 03:46:19;;;;;;;25.20;7.28;;;;;;;10.87;100.00;101737.69;5069958;28;20028;-56
2023/05/12 03:48:45;;;;;;;25.80;7.75;;;;;;;10.85;100.00;101739.72;5050901;28;20378;-56
2023/05/12 03:51:11;;;;;;;20.63;6.70;;;;;;;10.82;100.00;101729.28;5066607;28;20028;-55
2023/05/12 03:53:36;;;;;;;21.60;7.10;;;;;;;10.86;100.00;101748.63;5062328;28;20025;-52
2023/05/12 03:56:03;;;;;;;19.80;6.57;;;;;;;10.84;100.00;101737.19;5058683;28;20024;-51
2023/05/12 03:58:29;;;;;;;14.23;5.72;;;;;;;10.80;100.00;101742.06;5062766;28;20431;-53
2023/05/12 04:00:56;;;;;;;22.60;6.22;;;;;;;10.83;100.00;101743.56;5050193;28;20049;-51
2023/05/12 04:03:21;;;;;;;22.27;6.10;;;;;;;10.80;100.00;101749.28;5050752;28;20036;-56
2023/05/12 04:05:46;;;;;;;20.17;5.78;;;;;;;10.82;100.00;101747.25;5050790;28;20086;-54
2023/05/12 04:08:12;;;;;;;18.98;5.22;;;;;;;10.80;100.00;101743.91;5048206;28;20059;-52
2023/05/12 04:10:40;;;;;;;19.42;5.10;;;;;;;10.76;100.00;101743.38;5047934;28;20064;-55
2023/05/12 04:13:10;;;;;;;20.10;5.50;;;;;;;10.73;100.00;101732.91;5059392;28;20031;-50
2023/05/12 04:15:35;;;;;;;19.83;4.63;;;;;;;10.70;100.00;101735.94;5064190;28;20421;-50
2023/05/12 04:18:03;;;;;;;25.60;7.07;;;;;;;10.69;100.00;101743.19;5063199;28;20032;-48
2023/05/12 04:20:29;;;;;;;15.52;5.45;;;;;;;10.71;100.00;101741.16;5047226;28;20471;-52
2023/05/12 04:22:55;;;;;;;21.73;5.07;;;;;;;10.68;100.00;101744.16;5049989;28;20108;-45
2023/05/12 04:25:20;;;;;;;29.30;5.03;;;;;;;10.64;100.00;101745.50;5064006;28;20032;-49
2023/05/12 04:27:46;;;;;;;16.17;4.80;;;;;;;10.61;100.00;101739.56;5059760;28;20075;-49
2023/05/12 04:30:11;;;;;;;16.55;4.88;;;;;;;10.66;100.00;101738.09;5065534;28;20120;-45
2023/05/12 04:32:37;;;;;;;23.20;5.90;;;;;;;10.66;100.00;101754.25;5031664;28;20040;-48
2023/05/12 04:35:02;;;;;;;14.98;5.53;;;;;;;10.64;100.00;101737.44;5052857;28;20017;-46
2023/05/12 04:37:27;;;;;;;20.17;6.38;;;;;;;10.70;100.00;101746.72;5064523;28;20483;-46
2023/05/12 04:39:53;;;;;;;15.30;6.32;;;;;;;10.68;100.00;101741.47;5050370;28;20075;-43
2023/05/12 04:42:18;;;;;;;42.92;8.32;;;;;;;10.69;100.00;101743.19;5054535;28;20131;-43
2023/05/12 04:44:46;;;;;;;34.15;9.48;;;;;;;10.71;100.00;101757.31;5051094;28;20084;-43
2023/05/12 04:47:12;;;;;;;34.33;8.32;;;;;;;10.65;100.00;101749.88;5040740;28;20036;-47
2023/05/12 04:49:37;;;;;;;31.58;8.18;;;;;;;10.73;100.00;101749.06;5060774;28;20021;-49
2023/05/12 04:52:04;;;;;;;30.27;8.02;;;;;;;10.67;100.00;101755.94;5052026;28;20037;-45
2023/05/12 04:54:30;;;;;;;36.75;9.35;;;;;;;10.71;100.00;101757.31;5050037;28;20025;-47
2023/05/12 04:56:56;;;;;;;38.53;10.18;;;;;;;10.72;100.00;101750.94;5050178;28;20025;-42
2023/05/12 04:59:23;;;;;;;29.73;9.85;;;;;;;10.69;100.00;101753.94;5057148;28;20493;-45
2023/05/12 05:01:49;;;;;;;43.75;9.98;;;;;;;10.81;100.00;101757.19;5068269;28;20419;-44
2023/05/12 05:04:14;;;;;;;33.42;11.38;;;;;;;10.86;100.00;101751.34;5066741;28;20040;-44
2023/05/12 05:06:40;;;;;;;33.90;11.10;;;;;;;10.84;100.00;101758.72;5061028;28;20025;-45
2023/05/12 05:09:06;;;;;;;30.98;11.35;;;;;;;10.90;100.00;101763.44;5050288;28;20041;-42
2023/05/12 05:11:31;;;;;;;41.10;12.20;;;;;;;10.92;100.00;101764.97;5065094;28;20112;-45
2023/05/12 05:13:56;;;;;;;38.67;13.48;;;;;;;10.91;100.00;101763.31;5065776;28;20036;-44
2023/05/12 05:16:23;;;;;;;57.28;14.52;;;;;;;10.96;100.00;101770.91;5065534;28;20089;-45
2023/05/12 05:18:48;;;;;;;44.72;16.08;;;;;;;10.94;100.00;101762.13;5051320;28;20123;-44
2023/05/12 05:21:14;;;;;;;46.80;16.42;;;;;;;11.00;100.00;101764.16;5052680;28;20726;-45
2023/05/12 05:23:40;;;;;;;45.97;18.73;;;;;;;10.98;100.00;101774.28;5051637;28;20533;-42
2023/05/12 05:26:07;;;;;;;53.45;19.63;;;;;;;11.05;100.00;101780.69;5065827;28;20082;-48
2023/05/12 05:28:34;;;;;;;54.15;20.17;;;;;;;11.05;100.00;101769.06;5067470;28;20583;-46
2023/05/12 05:30:59;;;;;;;56.22;22.17;;;;;;;11.10;100.00;101766.75;5065077;28;20035;-46
2023/05/12 05:33:25;;;;;;;59.45;22.65;;;;;;;11.12;100.00;101770.97;5066808;28;20036;-46
2023/05/12 05:35:50;;;;;;;65.88;23.73;;;;;;;11.14;100.00;101770.81;5067093;28;20170;-46
2023/05/12 05:38:15;;;;;;;63.15;23.63;;;;;;;11.17;100.00;101765.09;5067328;28;20036;-47
2023/05/12 05:40:41;;;;;;;72.07;24.77;;;;;;;11.17;100.00;101774.00;5061492;28;20093;-44
2023/05/12 05:43:07;;;;;;;66.95;26.67;;;;;;;11.21;100.00;101775.34;5056407;28;20467;-47
2023/05/12 05:45:33;;;;;;;74.72;27.48;;;;;;;11.18;100.00;101775.69;5046329;28;20460;-44
2023/05/12 05:47:58;;;;;;;86.03;28.42;;;;;;;11.23;100.00;101771.69;5052435;28;20095;-47
2023/05/12 05:50:23;;;;;;;79.18;30.75;;;;;;;11.20;100.00;101768.28;5053734;28;20056;-45
2023/05/12 05:52:49;;;;;;;79.90;31.10;;;;;;;11.25;100.00;101780.44;5061654;28;20036;-45
2023/05/12 05:55:14;;;;;;;89.68;31.90;;;;;;;11.25;100.00;101780.44;5071724;28;20032;-45
2023/05/12 05:57:40;;;;;;;91.10;32.15;;;;;;;11.28;100.00;101790.91;5072942;28;20078;-48
2023/05/12 06:00:08;;;;;;;85.32;32.10;;;;;;;11.29;100.00;101789.88;5073152;28;20083;-47
2023/05/12 06:02:34;;;;;;;96.65;34.17;;;;;;;11.28;100.00;101786.34;5072456;28;20048;-45
2023/05/12 06:05:00;;;;;;;97.82;34.55;;;;;;;11.33;100.00;101797.47;5053768;28;20035;-44
2023/05/12 06:07:26;;;;;;;86.15;33.65;;;;;;;11.37;100.00;101795.28;5071429;28;20063;-47
2023/05/12 06:09:53;;;;;;;105.30;35.58;;;;;;;11.38;100.00;101791.59;5035964;28;20055;-42
2023/05/12 06:12:18;;;;;;;96.25;35.60;;;;;;;11.42;100.00;101795.63;5048383;28;20032;-47
2023/05/12 06:14:44;;;;;;;101.82;36.30;;;;;;;11.43;100.00;101791.97;5065851;28;20039;-46
2023/05/12 06:17:09;;;;;;;94.45;35.90;;;;;;;11.47;100.00;101801.38;5072598;28;20031;-47
2023/05/12 06:19:35;;;;;;;95.00;35.92;;;;;;;11.51;100.00;101802.75;5070543;28;20036;-45
2023/05/12 06:22:00;;;;;;;103.13;35.33;;;;;;;11.52;100.00;101804.44;5072933;28;20029;-45
2023/05/12 06:24:26;;;;;;;110.47;35.65;;;;;;;11.54;100.00;101807.81;5072716;28;20317;-47
2023/05/12 06:26:51;;;;;;;117.60;36.67;;;;;;;11.53;100.00;101803.44;5071564;28;20063;-45
2023/05/12 06:29:16;;;;;;;130.25;39.20;;;;;;;11.55;100.00;101801.41;5063938;28;20087;-48
2023/05/12 06:31:42;;;;;;;128.88;38.70;;;;;;;11.59;100.00;101810.88;5053587;28;20397;-47
2023/05/12 06:34:07;;;;;;;135.88;40.05;;;;;;;11.61;100.00;101807.97;5066566;28;20048;-46
2023/05/12 06:36:33;;;;;;;130.63;39.63;;;;;;;11.65;100.00;101815.59;5063680;28;20553;-48
2023/05/12 06:38:58;;;;;;;126.30;40.08;;;;;;;11.70;100.00;101811.56;5057264;28;20028;-47
2023/05/12 06:41:24;;;;;;;129.40;40.10;;;;;;;11.74;100.00;101808.38;5053890;28;20079;-46
2023/05/12 06:43:50;;;;;;;145.88;43.67;;;;;;;11.77;100.00;101813.44;5053256;28;20026;-48
2023/05/12 06:46:16;;;;;;;137.13;43.83;;;;;;;11.79;100.00;101806.00;5058995;28;20124;-46
2023/05/12 06:48:42;;;;;;;148.00;44.95;;;;;;;11.86;100.00;101812.44;5072261;28;20501;-46
2023/05/12 06:51:08;;;;;;;153.00;47.20;;;;;;;11.88;100.00;101811.47;5065974;28;20471;-42
2023/05/12 06:53:36;;;;;;;156.20;47.33;;;;;;;11.95;100.00;101813.28;5051921;28;20029;-44
2023/05/12 06:56:03;;;;;;;153.23;46.63;;;;;;;12.00;100.00;101819.03;5052289;28;20024;-46
2023/05/12 06:58:28;;;;;;;151.18;45.53;;;;;;;12.10;100.00;101816.19;5049422;28;20372;-45
2023/05/12 07:00:53;;;;;;;167.45;48.63;;;;;;;12.16;100.00;101823.59;5051729;28;20054;-46
2023/05/12 07:03:19;;;;;;;154.15;46.55;;;;;;;12.21;100.00;101820.41;5034511;28;20021;-46
2023/05/12 07:05:44;;;;;;;161.88;48.70;;;;;;;12.36;100.00;101816.00;5052261;28;20064;-45
2023/05/12 07:08:09;;;;;;;147.57;46.60;;;;;;;12.42;100.00;101818.03;5058424;28;20020;-44
2023/05/12 07:10:36;;;;;;;145.88;46.00;;;;;;;12.50;100.00;101819.88;5059672;28;20510;-43
2023/05/12 07:13:02;;;;;;;148.57;45.70;;;;;;;12.58;100.00;101817.16;5061445;28;20394;-46
2023/05/12 07:15:27;;;;;;;147.27;46.20;;;;;;;12.66;100.00;101819.84;5058802;28;20265;-45
2023/05/12 07:17:54;;;;;;;142.52;46.58;;;;;;;12.77;100.00;101832.16;5062820;28;20025;-48
2023/05/12 07:20:20;;;;;;;138.52;44.58;;;;;;;12.86;100.00;101828.41;5059749;28;20025;-42
2023/05/12 07:22:45;;;;;;;138.98;43.55;;;;;;;12.92;100.00;101825.00;5059850;28;20031;-45
2023/05/12 07:25:11;;;;;;;136.77;42.63;;;;;;;12.96;100.00;101820.13;5061124;28;20694;-43
2023/05/12 07:27:37;;;;;;;122.47;42.60;;;;;;;12.94;100.00;101814.88;5058656;28;20036;-43
2023/05/12 07:30:06;;;;;;;124.05;43.75;;;;;;;13.06;100.00;101819.91;5059658;28;20029;-44
2023/05/12 07:32:32;;;;;;;129.00;42.15;;;;;;;13.12;100.00;101813.81;5061629;28;20491;-43
2023/05/12 07:34:57;;;;;;;105.57;40.17;;;;;;;13.14;100.00;101811.78;5061104;28;20024;-44
2023/05/12 07:37:23;;;;;;;111.03;41.53;;;;;;;13.21;100.00;101801.94;5060302;28;20020;-47
2023/05/12 07:39:48;;;;;;;114.32;41.60;;;;;;;13.42;100.00;101808.63;5060348;28;20467;-44
2023/05/12 07:42:14;;;;;;;105.70;38.92;;;;;;;13.49;100.00;101806.91;5060830;28;20021;-45
2023/05/12 07:44:40;;;;;;;99.82;37.38;;;;;;;13.49;100.00;101804.22;5060109;28;20103;-46
2023/05/12 07:47:05;;;;;;;91.43;35.60;;;;;;;13.57;100.00;101801.47;5056610;28;20032;-45
2023/05/12 07:49:31;;;;;;;85.32;34.70;;;;;;;13.61;100.00;101798.22;5058548;28;20035;-43
2023/05/12 07:51:56;;;;;;;98.43;34.35;;;;;;;13.67;100.00;101802.06;5044972;28;20035;-43
2023/05/12 07:54:22;;;;;;;96.63;36.40;;;;;;;13.72;100.00;101805.09;5063202;28;20029;-46
2023/05/12 07:56:47;;;;;;;86.65;33.72;;;;;;;13.74;100.00;101797.63;5046630;28;20455;-45
2023/05/12 07:59:13;;;;;;;80.30;31.92;;;;;;;13.81;100.00;101795.88;5060212;28;20025;-43
2023/05/12 08:01:39;;;;;;;77.18;30.17;;;;;;;14.04;100.00;101787.75;5059466;28;20440;-44
2023/05/12 08:04:05;;;;;;;71.05;29.58;;;;;;;14.41;100.00;101787.97;5060720;28;20029;-44
2023/05/12 08:06:31;;;;;;;75.93;29.77;;;;;;;14.85;100.00;101789.88;5060054;28;20031;-42
2023/05/12 08:08:57;;;;;;;66.85;27.77;;;;;;;15.18;100.00;101779.47;5058184;28;20025;-47
2023/05/12 08:11:25;;;;;;;62.70;26.13;;;;;;;15.23;100.00;101763.47;5058044;28;20094;-41
2023/05/12 08:13:50;;;;;;;57.30;25.77;;;;;;;15.06;100.00;101762.88;5030046;28;20028;-46
2023/05/12 08:16:16;;;;;;;60.95;25.50;;;;;;;15.00;100.00;101760.06;5060433;28;20067;-43
2023/05/12 08:18:41;;;;;;;57.63;23.50;;;;;;;14.94;100.00;101767.06;5059939;28;20072;-45
2023/05/12 08:21:07;;;;;;;59.08;25.42;;;;;;;15.25;100.00;101768.72;5058665;28;20041;-45
2023/05/12 08:23:32;;;;;;;64.65;25.45;;;;;;;15.65;100.00;101763.75;5056711;28;20111;-44
2023/05/12 08:25:58;;;;;;;57.60;23.38;;;;;;;15.59;100.00;101760.78;5055684;28;20102;-45
2023/05/12 08:28:23;;;;;;;57.40;23.90;;;;;;;15.60;100.00;101764.31;5060257;28;20429;-44
2023/05/12 08:30:49;;;;;;;55.78;23.73;;;;;;;15.66;100.00;101760.81;5059806;28;20027;-45
2023/05/12 08:33:14;;;;;;;52.90;23.00;;;;;;;15.66;100.00;101754.56;5061141;28;20068;-44
2023/05/12 08:35:39;;;;;;;53.60;21.67;;;;;;;15.63;100.00;101763.09;5043435;28;20492;-43
2023/05/12 08:38:05;;;;;;;51.15;21.88;;;;;;;15.54;100.00;101757.78;5060115;28;20025;-45
2023/05/12 08:40:37;;;;;;;50.47;21.55;;;;;;;15.54;100.00;101762.38;5058964;28;20060;-48
2023/05/12 08:43:21;;;;;;;48.92;22.00;;;;;;;15.68;100.00;101774.22;5057538;28;20166;-46
2023/05/12 08:45:47;;;;;;;45.40;22.05;;;;;;;15.77;100.00;101771.22;5059180;28;20414;-42
2023/05/12 08:48:14;;;;;;;57.15;23.65;;;;;;;15.75;100.00;101781.41;5061843;28;20037;-43
2023/05/12 08:50:40;;;;;;;48.17;22.13;;;;;;;15.74;100.00;101774.28;5069326;28;20029;-44
2023/05/12 08:53:10;;;;;;;46.58;21.75;;;;;;;15.74;100.00;101776.16;5068899;28;20076;-43
2023/05/12 08:55:36;;;;;;;53.75;23.80;;;;;;;15.80;100.00;101783.56;5070568;28;20024;-43
2023/05/12 08:58:02;;;;;;;53.13;24.23;;;;;;;16.37;100.00;101788.00;5070261;28;20086;-45
2023/05/12 09:00:27;;;;;;;50.40;23.00;;;;;;;16.87;100.00;101775.19;5070898;28;20080;-43
2023/05/12 09:02:54;;;;;;;51.25;21.77;;;;;;;17.27;100.00;101767.25;5070895;28;20170;-44
2023/05/12 09:05:20;;;;;;;48.70;22.45;;;;;;;17.75;100.00;101769.03;5070430;28;20029;-44
2023/05/12 09:07:48;;;;;;;47.50;23.10;;;;;;;18.32;100.00;101756.72;5070965;28;20028;-45
2023/05/12 09:10:18;;;;;;;46.40;22.40;;;;;;;18.47;100.00;101748.31;5071018;28;20230;-44
2023/05/12 09:12:45;;;;;;;43.65;21.38;;;;;;;18.11;100.00;101748.75;5069665;28;20025;-45
2023/05/12 09:15:15;;;;;;;46.22;21.02;;;;;;;18.02;100.00;101759.03;5069505;28;20098;-46
2023/05/12 09:17:40;;;;;;;45.60;21.13;;;;;;;18.47;100.00;101748.31;5068715;28;20100;-43
2023/05/12 09:20:06;;;;;;;43.45;20.88;;;;;;;18.72;100.00;101750.34;5069028;28;20451;-45
2023/05/12 09:22:35;;;;;;;43.08;21.05;;;;;;;18.81;100.00;101752.69;5073360;28;20024;-43
2023/05/12 09:25:00;;;;;;;38.60;19.08;;;;;;;19.19;100.00;101757.34;5074175;28;20123;-43
2023/05/12 09:27:27;;;;;;;43.38;20.30;;;;;;;18.85;100.00;101751.22;5073005;28;20331;-44
2023/05/12 09:29:53;;;;;;;38.63;18.70;;;;;;;18.76;100.00;101759.81;5074263;28;20294;-43
2023/05/12 09:32:32;;;;;;;42.30;19.55;;;;;;;18.41;100.00;101749.19;5074305;28;20446;-45
2023/05/12 09:35:07;;;;;;;37.97;19.20;;;;;;;18.29;100.00;101762.59;5074729;28;20032;-46
2023/05/12 09:37:33;;;;;;;39.40;20.20;;;;;;;18.35;100.00;101761.78;5073792;28;20479;-43
2023/05/12 09:40:03;;;;;;;40.47;20.77;;;;;;;18.39;100.00;101764.91;5072483;28;20101;-43
2023/05/12 09:42:31;;;;;;;37.08;18.88;;;;;;;18.50;100.00;101750.63;5072544;28;20028;-42
2023/05/12 09:45:01;;;;;;;37.70;19.17;;;;;;;19.02;100.00;101765.19;5056648;28;20020;-44
2023/05/12 09:47:28;;;;;;;45.53;19.40;;;;;;;19.53;100.00;101764.31;5073411;28;20029;-44
2023/05/12 09:49:55;;;;;;;33.70;17.88;;;;;;;19.71;100.00;101770.97;5072504;28;20189;-44
2023/05/12 09:52:21;;;;;;;38.85;19.42;;;;;;;20.11;100.00;101765.19;5072593;28;20024;-43
2023/05/12 09:54:47;;;;;;;35.00;18.58;;;;;;;20.33;100.00;101766.50;5073956;28;20131;-44
2023/05/12 09:57:15;;;;;;;33.50;18.98;;;;;;;20.21;100.00;101765.53;5072053;28;20571;-44
2023/05/12 09:59:42;;;;;;;39.13;20.02;;;;;;;19.77;100.00;101764.59;5073448;28;20135;-43
2023/05/12 10:02:08;;;;;;;36.90;18.88;;;;;;;19.56;100.00;101763.03;5072446;28;20028;-44
2023/05/12 10:04:56;;;;;;;36.65;19.00;;;;;;;19.35;100.00;101764.19;5071839;28;20509;-45
2023/05/12 10:07:22;;;;;;;36.10;19.40;;;;;;;19.41;100.00;101766.06;5073618;28;20036;-45
2023/05/12 10:09:48;;;;;;;39.07;19.20;;;;;;;19.79;100.00;101773.44;5071992;28;20047;-43
2023/05/12 10:12:15;;;;;;;33.72;18.52;;;;;;;20.34;100.00;101772.78;5071669;28;20470;-44
2023/05/12 10:14:41;;;;;;;32.75;17.92;;;;;;;20.91;100.00;101772.66;5072886;28;20040;-42
2023/05/12 10:17:08;;;;;;;37.13;19.42;;;;;;;21.22;100.00;101772.50;5055004;28;20020;-42
2023/05/12 10:19:34;;;;;;;33.28;18.02;;;;;;;21.57;100.00;101766.34;5072949;28;20155;-43
2023/05/12 10:21:59;;;;;;;32.40;18.05;;;;;;;21.58;100.00;101768.00;5072743;28;20320;-41
2023/05/12 10:24:26;;;;;;;34.45;18.77;;;;;;;21.32;100.00;101771.94;5054827;28;20028;-44
2023/05/12 10:26:52;;;;;;;35.85;17.58;;;;;;;21.30;100.00;101773.22;5072455;28;20032;-44
2023/05/12 10:29:18;;;;;;;32.90;18.75;;;;;;;21.42;100.00;101772.25;5072706;28;20463;-41
2023/05/12 10:31:45;;;;;;;33.25;19.05;;;;;;;21.48;100.00;101765.84;5054703;28;20023;-45
2023/05/12 10:34:18;;;;;;;32.47;18.75;;;;;;;21.86;100.00;101769.31;5072985;28;20039;-46
2023/05/12 10:36:49;;;;;;;36.47;18.40;;;;;;;22.00;100.00;101778.97;5071592;28;20025;-45
2023/05/12 10:39:14;;;;;;;31.10;18.38;;;;;;;21.67;100.00;101771.28;5073049;28;20029;-47
2023/05/12 10:41:41;;;;;;;35.65;19.02;;;;;;;21.53;100.00;101767.88;5071574;28;20082;-43
2023/05/12 10:44:06;;;;;;;33.00;18.63;;;;;;;21.55;100.00;101765.75;5073256;28;20025;-45
2023/05/12 10:46:32;;;;;;;34.58;19.00;;;;;;;21.70;100.00;101768.91;5072513;28;20027;-44
2023/05/12 10:48:59;;;;;;;39.05;19.15;;;;;;;21.79;100.00;101766.66;5054551;28;20016;-45
2023/05/12 10:51:27;;;;;;;32.88;18.33;;;;;;;22.26;100.00;101771.41;5073107;28;20132;-43
2023/05/12 10:54:06;;;;;;;35.50;18.58;;;;;;;22.50;100.00;101764.03;5054722;28;20021;-43
2023/05/12 10:56:42;;;;;;;34.70;18.45;;;;;;;22.60;100.00;101766.19;5072460;28;20070;-42
2023/05/12 10:59:18;;;;;;;34.28;19.15;;;;;;;22.27;100.00;101770.34;5070750;28;20493;-42